Milledgeville, GA

06:54 AM EDT del 01 novembre 2014 (GMT -0400)
Baldwin County | Change Station
CLOSE
Current Station
Aeroporto
Location: Milledgeville,
Altitudine: 384 ft
Stazioni meteo nelle vicinanze

Alt. 384 ft 33.15 °N, 83.24 °W | Updated 19 minutes ago

Molto nuvoloso
Molto nuvoloso
43 °F
Sembra 37 °F
N
10
Vento Variabile Vento da ONO
Gusts 25 mph

Oggi
Massima -- | Minima -- °F
--% Possibilità di precip.
Ieri
Massima -- | Minima -- °F
Precip. -- in
7:51 AM 6:41 PM
Gobba a ponente, 65% visible
Pressione 29.88 in
Visibilità 10.0 miglia
Nuvole Molto nuvoloso 4000 ft
Molto nuvoloso 4800 ft
Coperto 12000 ft
Raffreddamento del vento 37 °F
Punto di rugiada 32 °F
Umidità 66%
Piovosità 0.00 in
Spessore del manto nevoso Non disponibile.
Raggi UV 0 fuori da 12
Polline 2.20 fuori da 12
Qualità dell'aria Non disponibile.
Flu Activity Non disponibile.
METAR KMLJ 011035Z AUTO 30009G22KT 10SM BKN040 BKN048 OVC120 06/00 A2988 RMK AO2

More Conditions Fewer Conditions

Pressione 29.88 in
Visibilità 10.0 miglia
Nuvole Molto nuvoloso 4000 ft
Molto nuvoloso 4800 ft
Coperto 12000 ft
Raffreddamento del vento 37 °F
Punto di rugiada 32 °F
Umidità 66%
Piovosità 0.00 in
Spessore del manto nevoso Non disponibile.
Raggi UV 0 fuori da 12
Polline 2.20 fuori da 12
Qualità dell'aria Non disponibile.
Flu Activity Non disponibile.
METAR KMLJ 011035Z AUTO 30009G22KT 10SM BKN040 BKN048 OVC120 06/00 A2988 RMK AO2

More Conditions Fewer Conditions

10-Day Weather Forecast

Almanac

Astronomia

Nov. 01, 2014 Alba Tramonto
Ora attuale
Crepuscolo civile
Crepuscolo nautico
Crepuscolo astronomico
Luna
Estensione della luce visibile
Lunghezza del giorno
Tomorrow will be .
, % of the Moon is Illuminated

Gli estremi di oggi

State Highs State Lows

Community

WunderPhotos

Upload Photos

1,766,875 foto caricate!

WunderBlogs® & News

Nearby

Qualità dell'aria

  Qualità dell'aria Indice AQ Inquinante
Not available.

Profondità neve

Stazione Profondità Altitudine

Attività sismica

Città  Distanza Mag. Data & Ora
Minimo Magnitudo Mostrato è 2.5.

Temperature delle acque costiere

Località Temperatura

Stazioni meteo nelle vicinanze